Dumfries, United Kingdom
Current Conditions -  °F | °C
As of 9:50 AM on Friday 21 Nov 2014 (Local Time) from EGOM Reporting Station
Haze Haze  
Wind Chill:   Ceiling: 1400
Heat Index:   Visibility: 1.8mi
Dew Point:   Wind: 8mph
Humidity: 100%   Direction: 100°E
Pressure: 30.09"   Gusts: NA
Location:  55.07°N, 3.61°W
Report Text: EGOM 210950Z 10007KT 3000 BR SCT002 BKN014 05/05 Q1019 AMB
Loading
Personal Weather Stations






























Interactive Weather Map New forecast layout! Learn more

10-Day Weather Forecast

Advertisements
Track Severe Weather on mobile